createdAt,value
2022-12-04T00:00:13.606Z,20.52
2022-12-04T00:00:27.188Z,20.25
2022-12-04T00:00:39.157Z,20.65
2022-12-04T00:00:51.109Z,22.40
2022-12-04T00:01:07.836Z,21.80
2022-12-04T00:01:22.403Z,20.73
2022-12-04T00:01:34.405Z,20.70
2022-12-04T00:01:46.380Z,18.95
2022-12-04T00:01:58.360Z,18.10
2022-12-04T00:02:10.664Z,19.48
2022-12-04T00:02:22.780Z,19.48
2022-12-04T00:02:35.129Z,20.98
2022-12-04T00:02:47.108Z,21.25
2022-12-04T00:02:59.139Z,21.92
2022-12-04T00:03:11.214Z,20.45
2022-12-04T00:03:23.217Z,18.88
2022-12-04T00:03:35.942Z,19.05
2022-12-04T00:03:48.250Z,19.45
2022-12-04T00:04:01.453Z,20.45
2022-12-04T00:04:13.575Z,19.75
2022-12-04T00:04:25.657Z,18.30
2022-12-04T00:04:37.712Z,18.88
2022-12-04T00:04:50.224Z,19.73
2022-12-04T00:05:04.014Z,21.30
2022-12-04T00:05:16.195Z,18.92
2022-12-04T00:05:28.120Z,17.30
2022-12-04T00:05:40.346Z,20.38
2022-12-04T00:06:03.608Z,22.35
2022-12-04T00:06:18.052Z,19.27
2022-12-04T00:06:30.871Z,20.17
2022-12-04T00:06:42.813Z,21.13
2022-12-04T00:06:58.860Z,20.98
2022-12-04T00:07:11.276Z,20.17
2022-12-04T00:07:23.183Z,20.60
2022-12-04T00:07:35.953Z,20.65
2022-12-04T00:07:48.114Z,20.35
2022-12-04T00:08:00.158Z,20.52
2022-12-04T00:08:12.260Z,19.23
2022-12-04T00:08:24.244Z,20.50
2022-12-04T00:08:36.898Z,20.98
2022-12-04T00:08:49.710Z,20.58
2022-12-04T00:09:02.211Z,20.52
2022-12-04T00:09:14.178Z,19.70
2022-12-04T00:09:26.144Z,19.80
2022-12-04T00:09:38.050Z,19.85
2022-12-04T00:09:50.125Z,20.27
2022-12-04T00:10:02.882Z,19.95
2022-12-04T00:10:14.791Z,20.15
2022-12-04T00:10:26.744Z,21.95
2022-12-04T00:10:43.571Z,21.67
2022-12-04T00:10:56.242Z,20.13
2022-12-04T00:11:10.546Z,19.95
2022-12-04T00:11:26.113Z,19.73
2022-12-04T00:11:38.534Z,19.25
2022-12-04T00:11:50.645Z,19.08
2022-12-04T00:12:03.398Z,20.08
2022-12-04T00:12:15.282Z,21.75
2022-12-04T00:12:27.755Z,21.30
2022-12-04T00:12:39.668Z,19.67
2022-12-04T00:12:52.519Z,19.88
2022-12-04T00:13:04.465Z,20.08
2022-12-04T00:13:16.393Z,18.67
2022-12-04T00:13:28.358Z,19.17
2022-12-04T00:13:41.781Z,21.10
2022-12-04T00:13:54.219Z,22.58
2022-12-04T00:14:07.494Z,22.08
2022-12-04T00:14:19.715Z,21.45
2022-12-04T00:14:31.709Z,21.23
2022-12-04T00:15:16.442Z,21.65
2022-12-04T00:15:25.057Z,19.50
2022-12-04T00:15:43.140Z,20.42
2022-12-04T00:15:55.162Z,20.00
2022-12-04T00:16:10.822Z,20.45
2022-12-04T00:16:25.983Z,20.45
2022-12-04T00:16:38.466Z,19.48
2022-12-04T00:16:50.824Z,19.88
2022-12-04T00:17:02.842Z,20.40
2022-12-04T00:17:14.911Z,21.38
2022-12-04T00:17:26.882Z,20.10
2022-12-04T00:17:38.810Z,20.05
2022-12-04T00:17:51.131Z,20.02
2022-12-04T00:18:03.127Z,21.00
2022-12-04T00:18:15.171Z,20.52
2022-12-04T00:18:27.821Z,19.73
2022-12-04T00:18:40.886Z,19.55
2022-12-04T00:18:53.457Z,19.65
2022-12-04T00:19:05.496Z,19.25
2022-12-04T00:19:17.501Z,19.20
2022-12-04T00:19:29.471Z,19.58
2022-12-04T00:19:41.506Z,20.90
2022-12-04T00:19:53.640Z,20.92
2022-12-04T00:20:06.645Z,19.00
2022-12-04T00:20:18.591Z,19.77
2022-12-04T00:20:30.492Z,20.33
2022-12-04T00:20:42.437Z,20.25
2022-12-04T00:20:54.624Z,19.85
2022-12-04T00:21:08.580Z,20.70
2022-12-04T00:21:21.073Z,20.70
2022-12-04T00:21:33.237Z,21.00
2022-12-04T00:21:45.910Z,19.20
2022-12-04T00:21:57.883Z,18.50
2022-12-04T00:22:09.846Z,19.10
2022-12-04T00:22:21.778Z,21.05
2022-12-04T00:22:34.183Z,22.02
2022-12-04T00:22:46.160Z,21.50
2022-12-04T00:22:58.099Z,20.33
2022-12-04T00:23:10.036Z,19.80
2022-12-04T00:23:21.971Z,19.42
2022-12-04T00:23:35.197Z,19.15
2022-12-04T00:23:47.915Z,19.40
2022-12-04T00:23:59.914Z,20.10
2022-12-04T00:24:12.384Z,20.77
2022-12-04T00:24:24.269Z,20.13
2022-12-04T00:24:36.163Z,19.42
2022-12-04T00:24:48.261Z,20.42
2022-12-04T00:25:01.351Z,21.83
2022-12-04T00:25:13.277Z,20.95
2022-12-04T00:25:25.257Z,19.02
2022-12-04T00:25:41.183Z,18.38
2022-12-04T00:26:00.217Z,18.67
2022-12-04T00:26:15.224Z,20.10
2022-12-04T00:26:29.123Z,20.55
2022-12-04T00:26:41.066Z,19.17
2022-12-04T00:26:52.996Z,19.35
2022-12-04T00:27:04.942Z,21.27
2022-12-04T00:27:16.871Z,21.77
2022-12-04T00:27:28.795Z,21.67
2022-12-04T00:27:40.887Z,20.88
2022-12-04T00:27:52.771Z,19.98
2022-12-04T00:28:04.843Z,19.80
2022-12-04T00:28:18.130Z,21.55
2022-12-04T00:28:30.132Z,22.50
2022-12-04T00:28:42.845Z,20.75
2022-12-04T00:28:55.812Z,20.02
2022-12-04T00:29:08.236Z,20.13
2022-12-04T00:29:20.250Z,21.20
2022-12-04T00:29:32.322Z,20.70
2022-12-04T00:29:44.292Z,21.23
2022-12-04T00:29:57.270Z,21.95
2022-12-04T00:30:09.741Z,21.92
2022-12-04T00:30:21.961Z,21.13
2022-12-04T00:30:33.833Z,21.52
2022-12-04T00:30:46.212Z,22.38
2022-12-04T00:30:58.854Z,21.67
2022-12-04T00:31:13.983Z,19.58
2022-12-04T00:31:27.756Z,19.33
2022-12-04T00:31:41.031Z,20.00
2022-12-04T00:31:53.052Z,19.65
2022-12-04T00:32:05.376Z,20.65
2022-12-04T00:32:17.386Z,21.45
2022-12-04T00:32:30.196Z,21.65
2022-12-04T00:32:42.122Z,21.52
2022-12-04T00:32:54.248Z,21.65
2022-12-04T00:33:06.122Z,20.05
2022-12-04T00:33:18.129Z,19.77
2022-12-04T00:33:30.076Z,19.45
2022-12-04T00:33:43.588Z,18.88
2022-12-04T00:33:55.958Z,18.75
2022-12-04T00:34:08.887Z,21.05
2022-12-04T00:34:23.537Z,20.48
2022-12-04T00:34:35.512Z,19.30
2022-12-04T00:34:47.722Z,19.95
2022-12-04T00:34:59.724Z,20.30
2022-12-04T00:35:11.702Z,21.20
2022-12-04T00:35:23.763Z,21.63
2022-12-04T00:35:35.775Z,22.45
2022-12-04T00:35:47.895Z,21.35
2022-12-04T00:36:02.067Z,20.57
2022-12-04T00:36:18.037Z,21.60
2022-12-04T00:36:30.203Z,22.38
2022-12-04T00:36:42.313Z,21.88
2022-12-04T00:36:54.283Z,20.67
2022-12-04T00:37:06.167Z,20.40
2022-12-04T00:37:18.086Z,20.13
2022-12-04T00:37:30.258Z,19.52
2022-12-04T00:37:42.199Z,19.15
2022-12-04T00:37:54.399Z,19.30
2022-12-04T00:38:06.350Z,20.73
2022-12-04T00:38:18.734Z,22.63
2022-12-04T00:38:30.956Z,21.52
2022-12-04T00:38:44.032Z,21.13
2022-12-04T00:38:58.399Z,20.37
2022-12-04T00:39:10.345Z,21.30
2022-12-04T00:39:22.566Z,21.00
2022-12-04T00:39:34.488Z,21.48
2022-12-04T00:39:46.840Z,19.70
2022-12-04T00:39:59.027Z,19.38
2022-12-04T00:40:12.345Z,19.80
2022-12-04T00:40:24.307Z,20.52
2022-12-04T00:40:37.014Z,20.90
2022-12-04T00:40:50.932Z,21.20
2022-12-04T00:41:02.944Z,22.05
2022-12-04T00:41:18.148Z,23.02
2022-12-04T00:41:32.413Z,23.00
2022-12-04T00:41:44.570Z,20.23
2022-12-04T00:41:56.487Z,19.10
2022-12-04T00:42:08.431Z,19.70
2022-12-04T00:42:20.410Z,20.60
2022-12-04T00:42:32.310Z,21.15
2022-12-04T00:42:44.263Z,20.98
2022-12-04T00:42:56.183Z,21.35
2022-12-04T00:43:08.088Z,21.20
2022-12-04T00:43:20.792Z,20.83
2022-12-04T00:43:33.257Z,20.25
2022-12-04T00:43:48.355Z,21.00
2022-12-04T00:44:02.511Z,20.92
2022-12-04T00:44:14.403Z,21.02
2022-12-04T00:44:27.703Z,20.50
2022-12-04T00:44:39.655Z,22.02
2022-12-04T00:44:52.166Z,22.33
2022-12-04T00:45:04.419Z,22.60
2022-12-04T00:45:16.912Z,21.60
2022-12-04T00:45:29.006Z,22.08
2022-12-04T00:45:41.301Z,22.00
2022-12-04T00:45:53.425Z,22.10
2022-12-04T00:46:05.726Z,21.40
2022-12-04T00:46:18.964Z,20.05
2022-12-04T00:46:31.206Z,19.73
2022-12-04T00:46:43.337Z,19.38
2022-12-04T00:46:55.248Z,20.95
2022-12-04T00:47:08.068Z,20.85
2022-12-04T00:47:20.015Z,22.55
2022-12-04T00:47:32.226Z,21.98
2022-12-04T00:47:44.286Z,22.42
2022-12-04T00:47:56.766Z,22.98
2022-12-04T00:48:08.753Z,21.75
2022-12-04T00:48:21.231Z,20.25
2022-12-04T00:48:33.586Z,21.42
2022-12-04T00:48:46.238Z,21.35
2022-12-04T00:49:02.031Z,20.63
2022-12-04T00:49:13.942Z,23.38
2022-12-04T00:49:25.848Z,23.35
2022-12-04T00:49:37.811Z,21.95
2022-12-04T00:49:50.445Z,19.38
2022-12-04T00:50:02.336Z,19.85
2022-12-04T00:50:14.260Z,20.23
2022-12-04T00:50:26.234Z,21.65
2022-12-04T00:50:38.756Z,21.45
2022-12-04T00:50:50.751Z,20.90
2022-12-04T00:51:07.512Z,19.35
2022-12-04T00:51:24.606Z,20.55
2022-12-04T00:51:36.568Z,20.97
2022-12-04T00:51:48.479Z,20.58
2022-12-04T00:52:00.436Z,19.63
2022-12-04T00:52:12.456Z,19.75
2022-12-04T00:52:24.493Z,19.98
2022-12-04T00:52:36.587Z,20.00
2022-12-04T00:52:48.503Z,18.85
2022-12-04T00:53:00.398Z,19.92
2022-12-04T00:53:13.250Z,20.50
2022-12-04T00:53:25.428Z,22.13
2022-12-04T00:53:38.526Z,20.92
2022-12-04T00:53:51.801Z,20.13
2022-12-04T00:54:04.231Z,21.20
2022-12-04T00:54:16.167Z,21.13
2022-12-04T00:54:28.114Z,21.52
2022-12-04T00:54:40.082Z,20.90
2022-12-04T00:54:52.099Z,20.10
2022-12-04T00:55:04.466Z,19.80
2022-12-04T00:55:16.519Z,19.25
2022-12-04T00:55:28.417Z,19.25
2022-12-04T00:55:41.196Z,20.08
2022-12-04T00:55:53.141Z,20.90
2022-12-04T00:56:07.397Z,21.42
2022-12-04T00:56:24.996Z,20.83
2022-12-04T00:56:37.347Z,20.20
2022-12-04T00:56:49.305Z,19.73
2022-12-04T00:57:02.189Z,20.30
2022-12-04T00:57:14.186Z,21.27
2022-12-04T00:57:26.186Z,21.85
2022-12-04T00:57:38.211Z,21.15
2022-12-04T00:57:54.671Z,21.33
2022-12-04T00:58:10.435Z,20.65
2022-12-04T00:58:22.379Z,19.33
2022-12-04T00:58:34.591Z,20.38
2022-12-04T00:58:47.185Z,20.23
2022-12-04T00:59:01.104Z,20.67
2022-12-04T00:59:13.402Z,20.15
2022-12-04T00:59:25.458Z,19.23
2022-12-04T00:59:38.340Z,19.42
2022-12-04T00:59:50.335Z,20.92
2022-12-04T01:00:03.507Z,20.60
2022-12-04T01:00:16.003Z,20.92
2022-12-04T01:00:27.992Z,21.00
2022-12-04T01:00:42.139Z,20.08
2022-12-04T01:01:03.030Z,20.88
2022-12-04T01:01:17.760Z,20.25
2022-12-04T01:01:30.836Z,21.25
2022-12-04T01:01:42.888Z,22.83
2022-12-04T01:01:54.858Z,22.80
2022-12-04T01:02:06.797Z,21.80
2022-12-04T01:02:18.837Z,20.08
2022-12-04T01:02:31.442Z,19.60
2022-12-04T01:02:43.451Z,20.67
2022-12-04T01:02:55.541Z,20.85
2022-12-04T01:03:08.385Z,20.80
2022-12-04T01:03:20.404Z,20.48
2022-12-04T01:03:32.870Z,21.38
2022-12-04T01:03:44.977Z,21.30
2022-12-04T01:03:57.076Z,22.63
2022-12-04T01:04:09.473Z,22.52
2022-12-04T01:04:21.457Z,20.73
2022-12-04T01:04:33.994Z,20.30
2022-12-04T01:04:45.996Z,20.30
2022-12-04T01:05:00.397Z,21.33
2022-12-04T01:05:12.904Z,19.90
2022-12-04T01:05:25.171Z,19.02
2022-12-04T01:05:45.486Z,21.38
2022-12-04T01:05:57.475Z,24.70
2022-12-04T01:06:43.787Z,23.67
2022-12-04T01:06:58.050Z,20.75
2022-12-04T01:07:13.884Z,21.20
2022-12-04T01:07:26.084Z,20.80
2022-12-04T01:07:38.496Z,20.63
2022-12-04T01:07:50.943Z,21.70
2022-12-04T01:08:03.048Z,20.88
2022-12-04T01:08:15.136Z,21.40
2022-12-04T01:08:27.990Z,22.42
2022-12-04T01:08:40.058Z,22.33
2022-12-04T01:08:53.462Z,20.63
2022-12-04T01:09:06.356Z,20.45
2022-12-04T01:09:18.838Z,21.05
2022-12-04T01:09:31.650Z,20.85
2022-12-04T01:09:43.570Z,19.33
2022-12-04T01:09:55.814Z,19.10
2022-12-04T01:10:12.174Z,21.75
2022-12-04T01:10:24.180Z,21.83
2022-12-04T01:10:39.367Z,21.55
2022-12-04T01:10:52.142Z,20.08
2022-12-04T01:11:06.810Z,19.70
2022-12-04T01:11:20.829Z,21.35
2022-12-04T01:11:33.707Z,20.38
2022-12-04T01:11:46.217Z,20.27
2022-12-04T01:11:58.155Z,20.52
2022-12-04T01:12:12.994Z,20.70
2022-12-04T01:12:28.412Z,21.65
2022-12-04T01:12:40.371Z,20.65
2022-12-04T01:12:55.561Z,19.63
2022-12-04T01:13:08.278Z,19.67
2022-12-04T01:13:20.462Z,21.10
2022-12-04T01:13:32.366Z,23.02
2022-12-04T01:13:45.197Z,21.92
2022-12-04T01:13:58.030Z,18.98
2022-12-04T01:14:10.040Z,18.80
2022-12-04T01:14:21.997Z,19.55
2022-12-04T01:14:34.036Z,20.38
2022-12-04T01:14:45.931Z,20.80
2022-12-04T01:14:58.010Z,20.10
2022-12-04T01:15:10.530Z,21.45
2022-12-04T01:15:22.443Z,23.35
2022-12-04T01:15:39.246Z,24.55
2022-12-04T01:15:51.281Z,21.02
2022-12-04T01:16:03.445Z,20.02
2022-12-04T01:16:28.058Z,20.52
2022-12-04T01:16:40.904Z,21.60
2022-12-04T01:16:52.996Z,22.23
2022-12-04T01:17:05.189Z,21.80
2022-12-04T01:17:17.139Z,21.90
2022-12-04T01:17:29.669Z,21.77
2022-12-04T01:17:41.631Z,20.30
2022-12-04T01:17:54.229Z,20.00
2022-12-04T01:18:06.573Z,20.20
2022-12-04T01:18:19.334Z,20.67
2022-12-04T01:18:31.315Z,24.00
2022-12-04T01:18:43.428Z,23.95
2022-12-04T01:18:55.974Z,22.40
2022-12-04T01:19:10.041Z,21.73
2022-12-04T01:19:21.971Z,21.75
2022-12-04T01:19:33.867Z,21.40
2022-12-04T01:19:45.774Z,19.95
2022-12-04T01:19:57.956Z,20.98
2022-12-04T01:20:12.526Z,21.95
2022-12-04T01:20:24.678Z,20.13
2022-12-04T01:20:37.354Z,19.35
2022-12-04T01:20:51.244Z,21.15
2022-12-04T01:21:03.338Z,22.20
2022-12-04T01:21:15.967Z,21.67
2022-12-04T01:21:28.137Z,20.85
2022-12-04T01:21:41.244Z,20.85
2022-12-04T01:21:53.244Z,21.52
2022-12-04T01:22:05.336Z,21.02
2022-12-04T01:22:17.312Z,20.70
2022-12-04T01:22:30.138Z,21.13
2022-12-04T01:22:42.202Z,22.00
2022-12-04T01:22:54.326Z,21.10
2022-12-04T01:23:06.385Z,20.55
2022-12-04T01:23:20.758Z,21.05
2022-12-04T01:23:32.685Z,20.63
2022-12-04T01:23:44.626Z,19.38
2022-12-04T01:23:58.120Z,19.20
2022-12-04T01:24:10.480Z,19.73
2022-12-04T01:24:22.397Z,20.02
2022-12-04T01:24:34.340Z,21.25
2022-12-04T01:24:46.318Z,21.65
2022-12-04T01:24:58.482Z,22.23
2022-12-04T01:25:10.684Z,22.77
2022-12-04T01:25:22.647Z,23.40
2022-12-04T01:25:34.563Z,22.08
2022-12-04T01:25:58.060Z,20.30
2022-12-04T01:26:11.148Z,20.60
2022-12-04T01:26:23.134Z,20.98
2022-12-04T01:26:35.654Z,20.92
2022-12-04T01:26:47.658Z,20.48
2022-12-04T01:26:59.902Z,20.00
2022-12-04T01:27:11.840Z,20.60
2022-12-04T01:27:25.145Z,20.55
2022-12-04T01:27:37.094Z,20.33
2022-12-04T01:27:49.408Z,20.75
2022-12-04T01:28:01.364Z,20.80
2022-12-04T01:28:13.349Z,20.10
2022-12-04T01:28:27.123Z,19.92
2022-12-04T01:28:39.615Z,19.92
2022-12-04T01:28:51.608Z,18.95
2022-12-04T01:29:03.576Z,20.23
2022-12-04T01:29:15.955Z,20.20
2022-12-04T01:29:27.890Z,20.52
2022-12-04T01:29:40.207Z,19.65
2022-12-04T01:29:52.210Z,20.35
2022-12-04T01:30:05.180Z,20.55
2022-12-04T01:30:17.164Z,20.60
2022-12-04T01:30:29.127Z,20.45
2022-12-04T01:30:41.053Z,20.65
2022-12-04T01:31:10.863Z,20.58
2022-12-04T01:31:23.719Z,20.83
2022-12-04T01:31:36.106Z,19.10
2022-12-04T01:31:48.103Z,19.40
2022-12-04T01:32:00.339Z,20.33
2022-12-04T01:32:12.509Z,20.25
2022-12-04T01:32:25.137Z,19.58
2022-12-04T01:32:37.072Z,20.00
2022-12-04T01:32:49.370Z,20.92
2022-12-04T01:33:01.277Z,22.17
2022-12-04T01:33:13.854Z,20.88
2022-12-04T01:33:26.162Z,20.25
2022-12-04T01:33:38.910Z,20.58
2022-12-04T01:33:51.309Z,22.55
2022-12-04T01:34:03.224Z,23.30
2022-12-04T01:34:15.170Z,22.63
2022-12-04T01:34:27.132Z,20.80
2022-12-04T01:34:40.112Z,21.00
2022-12-04T01:34:52.041Z,20.52
2022-12-04T01:35:04.502Z,20.67
2022-12-04T01:35:16.611Z,20.10
2022-12-04T01:35:28.493Z,19.67
2022-12-04T01:35:40.418Z,19.75
2022-12-04T01:35:57.199Z,20.05
2022-12-04T01:36:12.124Z,20.50
2022-12-04T01:36:26.806Z,20.38
2022-12-04T01:36:38.771Z,19.55
2022-12-04T01:36:51.853Z,19.58
2022-12-04T01:37:03.787Z,18.83
2022-12-04T01:37:15.732Z,19.42
2022-12-04T01:37:30.940Z,19.38
2022-12-04T01:37:42.917Z,21.65
2022-12-04T01:37:54.880Z,21.52
2022-12-04T01:38:07.187Z,20.88
2022-12-04T01:38:19.698Z,20.17
2022-12-04T01:38:31.662Z,21.58
2022-12-04T01:38:43.790Z,21.65
2022-12-04T01:38:56.541Z,22.10
2022-12-04T01:39:09.116Z,21.50
2022-12-04T01:39:21.012Z,21.33
2022-12-04T01:39:36.360Z,21.75
2022-12-04T01:39:49.297Z,20.60
2022-12-04T01:40:01.437Z,20.17
2022-12-04T01:40:15.538Z,21.48
2022-12-04T01:40:27.520Z,20.05
2022-12-04T01:40:44.481Z,19.33
2022-12-04T01:40:57.257Z,21.25
2022-12-04T01:41:11.461Z,21.63
2022-12-04T01:41:27.778Z,20.63
2022-12-04T01:41:39.821Z,21.97
2022-12-04T01:41:52.049Z,21.52
2022-12-04T01:42:04.841Z,20.27
2022-12-04T01:42:17.885Z,20.17
2022-12-04T01:42:29.846Z,21.35
2022-12-04T01:42:41.971Z,21.63
2022-12-04T01:42:53.931Z,20.67
2022-12-04T01:43:09.709Z,20.08
2022-12-04T01:43:23.289Z,20.58
2022-12-04T01:43:37.112Z,19.98
2022-12-04T01:44:22.458Z,20.52
2022-12-04T01:44:36.138Z,21.30
2022-12-04T01:45:25.265Z,22.00
2022-12-04T01:45:43.089Z,23.23
2022-12-04T01:45:59.638Z,22.73
2022-12-04T01:46:12.109Z,21.80
2022-12-04T01:46:24.110Z,22.17
2022-12-04T01:46:36.290Z,22.40
2022-12-04T01:46:56.173Z,21.60
2022-12-04T01:47:10.207Z,20.85
2022-12-04T01:47:22.094Z,22.98
2022-12-04T01:47:34.003Z,24.58
2022-12-04T01:47:46.420Z,23.90
2022-12-04T01:48:07.841Z,21.55
2022-12-04T01:48:39.912Z,20.20
2022-12-04T01:48:54.047Z,20.88
2022-12-04T01:49:10.669Z,20.05
2022-12-04T01:49:38.421Z,21.33
2022-12-04T01:49:50.361Z,20.98
2022-12-04T01:50:02.389Z,21.90
2022-12-04T01:50:14.951Z,22.25
2022-12-04T01:50:26.910Z,20.90
2022-12-04T01:50:39.892Z,20.15
2022-12-04T01:50:57.683Z,21.52
2022-12-04T01:51:18.535Z,20.85
2022-12-04T01:51:40.857Z,19.55
2022-12-04T01:52:11.558Z,20.45
2022-12-04T01:52:26.430Z,19.23
2022-12-04T01:52:39.111Z,18.80
2022-12-04T01:52:51.887Z,21.13
2022-12-04T01:53:03.934Z,21.83
2022-12-04T01:53:16.908Z,22.25
2022-12-04T01:53:29.703Z,22.83
2022-12-04T01:53:44.186Z,21.40
2022-12-04T01:54:04.846Z,20.10
2022-12-04T01:54:22.523Z,20.70
2022-12-04T01:54:37.286Z,20.45
2022-12-04T01:54:56.399Z,20.55
2022-12-04T01:55:09.194Z,20.90
2022-12-04T01:55:21.248Z,21.23
2022-12-04T01:55:33.504Z,21.20
2022-12-04T01:55:46.712Z,22.52
2022-12-04T01:55:59.113Z,22.58
2022-12-04T01:56:12.314Z,20.80
2022-12-04T01:56:30.092Z,19.23
2022-12-04T01:56:54.965Z,19.98
2022-12-04T01:57:11.713Z,20.65
2022-12-04T01:57:26.889Z,22.83
2022-12-04T01:57:39.174Z,25.15
2022-12-04T01:57:51.788Z,24.27
2022-12-04T01:58:04.040Z,21.65
2022-12-04T01:58:21.339Z,22.42
2022-12-04T01:58:40.059Z,21.98
2022-12-04T01:58:56.665Z,20.58
2022-12-04T01:59:10.741Z,21.85
2022-12-04T01:59:26.712Z,23.02
2022-12-04T01:59:45.023Z,23.45
2022-12-04T02:00:01.903Z,22.33
2022-12-04T02:00:16.112Z,20.42
2022-12-04T02:00:28.471Z,20.65
2022-12-04T02:00:40.379Z,21.33
2022-12-04T02:00:58.371Z,20.90
2022-12-04T02:01:11.164Z,21.60
2022-12-04T02:01:24.773Z,21.63
2022-12-04T02:01:50.006Z,19.98
2022-12-04T02:02:19.292Z,19.58
2022-12-04T02:02:37.531Z,20.42
2022-12-04T02:02:49.979Z,20.60
2022-12-04T02:03:02.052Z,20.40
2022-12-04T02:03:15.458Z,20.95
2022-12-04T02:03:27.444Z,22.25
2022-12-04T02:03:41.171Z,22.08
2022-12-04T02:03:54.057Z,21.27
2022-12-04T02:04:06.135Z,20.30
2022-12-04T02:04:18.182Z,20.13
2022-12-04T02:04:31.383Z,20.70
2022-12-04T02:04:44.218Z,21.08
2022-12-04T02:04:56.739Z,21.42
2022-12-04T02:05:14.592Z,22.98
2022-12-04T02:05:27.225Z,22.58
2022-12-04T02:05:39.127Z,20.95
2022-12-04T02:05:51.174Z,21.45
2022-12-04T02:06:03.624Z,20.80
2022-12-04T02:06:15.965Z,21.05
2022-12-04T02:06:27.876Z,21.02
2022-12-04T02:06:40.533Z,21.17
2022-12-04T02:06:52.614Z,19.92
2022-12-04T02:07:05.211Z,19.67
2022-12-04T02:07:17.134Z,19.55
2022-12-04T02:07:31.268Z,19.92
2022-12-04T02:07:46.626Z,22.55
2022-12-04T02:08:05.552Z,23.33
2022-12-04T02:08:19.021Z,20.63
2022-12-04T02:08:32.694Z,20.05
2022-12-04T02:08:44.735Z,20.45
2022-12-04T02:08:56.668Z,20.77
2022-12-04T02:09:08.976Z,20.40
2022-12-04T02:09:26.815Z,20.05
2022-12-04T02:09:41.233Z,21.52
2022-12-04T02:09:56.548Z,21.58
2022-12-04T02:10:09.961Z,19.92
2022-12-04T02:10:35.873Z,19.65
2022-12-04T02:10:59.683Z,20.15
2022-12-04T02:11:34.497Z,21.55
2022-12-04T02:12:32.775Z,21.52
2022-12-04T02:13:29.218Z,19.23
2022-12-04T02:13:59.707Z,21.13
2022-12-04T02:14:31.158Z,21.02
2022-12-04T02:15:14.138Z,21.75
2022-12-04T02:15:41.124Z,19.63
2022-12-04T02:16:22.493Z,21.45
2022-12-04T02:16:45.813Z,21.83
2022-12-04T02:17:09.626Z,22.33
2022-12-04T02:17:39.170Z,22.60
2022-12-04T02:18:00.003Z,22.42
2022-12-04T02:18:26.714Z,19.77
2022-12-04T02:18:46.404Z,18.77
2022-12-04T02:19:11.160Z,21.27
2022-12-04T02:19:32.115Z,21.70
2022-12-04T02:19:56.901Z,20.95
2022-12-04T02:20:20.118Z,20.83
2022-12-04T02:20:53.599Z,24.33
2022-12-04T02:21:23.856Z,19.63
2022-12-04T02:21:43.399Z,20.23
2022-12-04T02:21:59.264Z,20.90
2022-12-04T02:22:35.534Z,20.23
2022-12-04T02:23:24.831Z,21.40
2022-12-04T02:23:51.702Z,20.33
2022-12-04T02:24:19.055Z,20.67
2022-12-04T02:24:49.757Z,21.73
2022-12-04T02:25:31.598Z,20.20
2022-12-04T02:25:54.225Z,21.10
2022-12-04T02:26:08.947Z,21.58
2022-12-04T02:26:33.601Z,22.10
2022-12-04T02:27:18.134Z,20.13
2022-12-04T02:28:14.470Z,21.08
2022-12-04T02:28:50.006Z,22.67
2022-12-04T02:29:25.976Z,19.65
2022-12-04T02:29:49.628Z,19.08
2022-12-04T02:30:05.505Z,18.35
2022-12-04T02:30:18.266Z,19.25
2022-12-04T02:30:31.850Z,19.73
2022-12-04T02:30:45.244Z,19.27
2022-12-04T02:31:00.297Z,19.35
2022-12-04T02:31:28.767Z,19.00
2022-12-04T02:31:48.402Z,18.63
2022-12-04T02:32:06.411Z,18.48
2022-12-04T02:32:40.264Z,19.55
2022-12-04T02:33:00.462Z,18.90
2022-12-04T02:33:12.962Z,18.73
2022-12-04T02:33:30.071Z,19.35
2022-12-04T02:33:41.929Z,19.30
2022-12-04T02:34:04.489Z,20.48
2022-12-04T02:34:25.584Z,18.60
2022-12-04T02:34:46.428Z,19.30
2022-12-04T02:35:12.633Z,19.92
2022-12-04T02:35:37.413Z,17.48
2022-12-04T02:36:03.121Z,20.33
2022-12-04T02:36:23.979Z,19.95
2022-12-04T02:36:48.584Z,21.10
2022-12-04T02:37:05.331Z,18.73
2022-12-04T02:37:21.264Z,20.52
2022-12-04T02:37:37.649Z,20.30
2022-12-04T02:37:58.812Z,19.88
2022-12-04T02:38:21.215Z,20.70
2022-12-04T02:38:41.652Z,21.70
2022-12-04T02:38:58.539Z,22.77
2022-12-04T02:39:25.179Z,22.02
2022-12-04T02:39:55.513Z,19.23
2022-12-04T02:40:16.112Z,20.88
2022-12-04T02:40:34.065Z,21.38
2022-12-04T02:40:52.238Z,21.13
2022-12-04T02:41:25.308Z,19.88
2022-12-04T02:41:51.629Z,21.02
2022-12-04T02:42:12.005Z,20.63
2022-12-04T02:42:45.279Z,20.13
2022-12-04T02:43:08.472Z,19.55
2022-12-04T02:43:45.300Z,19.40
2022-12-04T02:44:20.176Z,18.90
2022-12-04T02:44:39.291Z,21.27
2022-12-04T02:44:57.363Z,19.50
2022-12-04T02:45:40.191Z,22.52
2022-12-04T02:46:05.524Z,19.30
2022-12-04T02:46:17.508Z,18.15
2022-12-04T02:46:38.636Z,17.85
2022-12-04T02:46:57.315Z,18.88
2022-12-04T02:47:12.822Z,19.33
2022-12-04T02:47:26.412Z,18.95
2022-12-04T02:47:41.932Z,19.17
2022-12-04T02:47:55.303Z,19.83
2022-12-04T02:48:08.272Z,20.73
2022-12-04T02:48:21.934Z,20.77
2022-12-04T02:48:40.112Z,20.25
2022-12-04T02:48:55.989Z,21.25
2022-12-04T02:49:14.957Z,21.95
2022-12-04T02:49:37.070Z,20.48
2022-12-04T02:49:59.706Z,20.13
2022-12-04T02:50:18.705Z,20.67
2022-12-04T02:50:34.062Z,19.10
2022-12-04T02:50:49.481Z,20.38
2022-12-04T02:51:03.466Z,20.52
2022-12-04T02:51:18.978Z,19.67
2022-12-04T02:51:34.876Z,19.60
2022-12-04T02:51:50.202Z,20.00
2022-12-04T02:52:07.020Z,19.40
2022-12-04T02:52:23.014Z,17.77
2022-12-04T02:52:40.177Z,17.35
2022-12-04T02:52:58.702Z,18.42
2022-12-04T02:53:16.647Z,18.58
2022-12-04T02:53:34.206Z,18.50
2022-12-04T02:53:53.409Z,19.23
2022-12-04T02:54:17.085Z,19.83
2022-12-04T02:54:37.492Z,19.63
2022-12-04T02:54:57.699Z,18.52
2022-12-04T02:55:16.338Z,18.55
2022-12-04T02:55:50.825Z,17.98
2022-12-04T02:56:08.389Z,18.95
2022-12-04T02:56:27.979Z,19.50
2022-12-04T02:56:44.008Z,19.15
2022-12-04T02:56:58.672Z,18.35
2022-12-04T02:57:16.845Z,17.75
2022-12-04T02:57:34.497Z,19.00
2022-12-04T02:57:51.640Z,18.75
2022-12-04T02:58:12.963Z,18.40
2022-12-04T02:58:48.879Z,18.85
2022-12-04T02:59:07.545Z,19.10
2022-12-04T02:59:25.111Z,18.55
2022-12-04T02:59:41.889Z,17.38
2022-12-04T02:59:57.962Z,17.73
2022-12-04T03:00:11.269Z,18.08
2022-12-04T03:00:23.406Z,16.67
2022-12-04T03:00:37.110Z,17.33
2022-12-04T03:00:53.394Z,17.77
2022-12-04T03:01:19.471Z,18.02
2022-12-04T03:01:42.203Z,17.95
2022-12-04T03:02:00.613Z,18.92
2022-12-04T03:02:25.455Z,18.92
2022-12-04T03:02:53.865Z,18.65
2022-12-04T03:03:14.153Z,18.23
2022-12-04T03:03:29.142Z,16.42
2022-12-04T03:03:41.462Z,17.83
2022-12-04T03:04:27.093Z,18.02
2022-12-04T03:04:41.374Z,20.00
2022-12-04T03:04:58.743Z,19.08
2022-12-04T03:05:15.134Z,17.55
2022-12-04T03:05:41.367Z,17.42
2022-12-04T03:06:00.397Z,17.48
2022-12-04T03:06:15.189Z,17.77
2022-12-04T03:06:31.149Z,18.67
2022-12-04T03:06:46.154Z,20.15
2022-12-04T03:07:06.944Z,18.98
2022-12-04T03:07:41.529Z,17.13
2022-12-04T03:07:59.667Z,17.42
2022-12-04T03:08:17.085Z,17.90
2022-12-04T03:08:37.887Z,17.88
2022-12-04T03:09:01.867Z,16.98
2022-12-04T03:09:33.296Z,17.77
2022-12-04T03:09:51.294Z,16.65
2022-12-04T03:10:09.193Z,19.13
2022-12-04T03:10:27.007Z,18.40
2022-12-04T03:10:46.295Z,16.70
2022-12-04T03:11:00.785Z,17.70
2022-12-04T03:11:12.870Z,16.73
2022-12-04T03:11:28.354Z,16.75
2022-12-04T03:11:46.035Z,17.13
2022-12-04T03:12:07.280Z,15.98
2022-12-04T03:12:36.447Z,17.63
2022-12-04T03:12:56.267Z,19.55
2022-12-04T03:13:16.044Z,17.85
2022-12-04T03:13:48.030Z,19.65
2022-12-04T03:14:06.641Z,19.52
2022-12-04T03:14:32.273Z,20.02
2022-12-04T03:14:54.907Z,16.88
2022-12-04T03:15:17.766Z,16.90
2022-12-04T03:15:34.473Z,15.95
2022-12-04T03:16:15.736Z,17.33
2022-12-04T03:16:48.831Z,18.35
2022-12-04T03:17:18.617Z,18.52
2022-12-04T03:17:38.704Z,17.20
2022-12-04T03:17:56.656Z,18.20
2022-12-04T03:18:32.884Z,18.17
2022-12-04T03:18:50.621Z,17.02
2022-12-04T03:19:05.617Z,16.42
2022-12-04T03:19:26.211Z,16.92
2022-12-04T03:19:47.206Z,17.65
2022-12-04T03:20:05.697Z,16.88
2022-12-04T03:20:19.630Z,17.73
2022-12-04T03:20:35.007Z,17.60
2022-12-04T03:20:52.788Z,16.70
2022-12-04T03:21:12.059Z,16.88
2022-12-04T03:21:29.688Z,18.35
2022-12-04T03:21:50.993Z,18.95